Fremington, United Kingdom
Current Conditions -  °F | °C
As of 3:50 AM on Wednesday 28 Jan 2015 (Local Time) from EGDX Reporting Station
Broken Clouds Broken Clouds  
Wind Chill: 42°   Ceiling: 900
Heat Index: 48°   Visibility: 6mi
Dew Point: 46°   Wind: 18mph
Humidity: 93%   Direction: 250°WSW
Pressure: 29.88"   Gusts: NA
Location:  51.07°N, 4.12°W
Report Text: EGDX 280350Z AUTO 25016KT 9999 BKN009/// 09/08 Q1012
Loading
Personal Weather Stations






























Interactive Weather Map New forecast layout! Learn more

10-Day Weather Forecast

Advertisements
Track Severe Weather on mobile